Time;durP1;ratioP1;P1;durP2;ratioP2;P2;SDS_P1;SDS_P2;PMS_P1;PMS_P2;Temp;Humidity;BMP_temperature;BMP_pressure;BME280_temperature;BME280_humidity;BME280_pressure;Samples;Min_cycle;Max_cycle;Signal;HPM_P1;HPM_P2
2022/07/22 00:04:02;;;;;;;8.07;7.38;;;;;;;20.67;61.11;97216.75;10216173;29;20552;-56
2022/07/22 00:09:21;;;;;;;7.97;7.18;;;;;;;20.68;61.16;97212.94;10215886;29;20063;-58
2022/07/22 00:14:41;;;;;;;7.93;7.13;;;;;;;20.68;61.19;97215.66;10215826;29;20055;-58
2022/07/22 00:20:03;;;;;;;7.68;6.80;;;;;;;20.67;61.16;97216.75;10213619;29;20056;-58
2022/07/22 00:25:23;;;;;;;7.90;6.75;;;;;;;20.68;61.24;97209.41;10215148;29;20068;-58
2022/07/22 00:30:42;;;;;;;7.60;6.93;;;;;;;20.66;61.17;97215.19;10214250;29;20464;-57
2022/07/22 00:36:02;;;;;;;7.90;7.20;;;;;;;20.65;61.17;97218.97;10215176;29;20059;-58
2022/07/22 00:41:22;;;;;;;7.43;6.72;;;;;;;20.66;60.91;97217.88;10214782;29;20056;-58
2022/07/22 00:46:41;;;;;;;7.40;6.80;;;;;;;20.66;61.04;97217.88;10214775;29;20064;-58
2022/07/22 00:52:01;;;;;;;7.57;6.75;;;;;;;20.65;60.95;97205.44;10214369;29;20056;-58
2022/07/22 00:57:21;;;;;;;7.60;6.90;;;;;;;20.65;60.74;97205.44;10215696;29;20397;-58
2022/07/22 01:02:41;;;;;;;7.38;6.65;;;;;;;20.65;60.93;97204.66;10213864;29;20149;-57
2022/07/22 01:08:05;;;;;;;7.85;7.13;;;;;;;20.65;60.89;97204.66;10214132;29;20051;-57
2022/07/22 01:13:25;;;;;;;7.38;6.78;;;;;;;20.65;60.82;97193.84;10213595;29;20059;-58
2022/07/22 01:18:45;;;;;;;9.43;7.03;;;;;;;20.64;60.87;97193.03;10212802;29;20055;-58
2022/07/22 01:24:06;;;;;;;7.65;6.88;;;;;;;20.64;60.84;97192.22;10202680;29;20055;-58
2022/07/22 01:29:26;;;;;;;7.53;6.72;;;;;;;20.63;60.80;97196.84;10212273;29;20115;-55
2022/07/22 01:34:45;;;;;;;8.45;7.15;;;;;;;20.63;60.69;97198.78;10212849;29;20051;-58
2022/07/22 01:40:05;;;;;;;7.45;6.75;;;;;;;20.63;60.71;97202.28;10198662;29;20472;-58
2022/07/22 01:45:25;;;;;;;8.88;6.80;;;;;;;20.62;60.48;97200.69;10212099;29;20059;-58
2022/07/22 01:50:44;;;;;;;7.55;6.50;;;;;;;20.61;60.73;97193.69;10222790;29;20115;-58
2022/07/22 01:56:04;;;;;;;7.32;6.55;;;;;;;20.62;60.65;97184.44;10186284;29;20107;-58
2022/07/22 02:01:28;;;;;;;7.80;6.95;;;;;;;20.61;60.64;97190.19;10200834;29;20063;-58
2022/07/22 02:06:47;;;;;;;8.75;7.18;;;;;;;20.60;60.65;97191.28;10191043;29;20059;-58
2022/07/22 02:12:08;;;;;;;7.60;7.00;;;;;;;20.60;60.61;97194.81;10197900;29;20060;-58
2022/07/22 02:17:34;;;;;;;7.55;6.85;;;;;;;20.60;60.58;97196.69;10199020;29;20071;-58
2022/07/22 02:22:54;;;;;;;7.22;6.53;;;;;;;20.60;60.60;97194.00;10217127;29;20102;-58
2022/07/22 02:28:13;;;;;;;7.90;7.00;;;;;;;20.60;60.56;97196.69;10208914;29;20059;-58
2022/07/22 02:33:33;;;;;;;7.30;6.65;;;;;;;20.59;60.61;97195.91;10218903;29;20079;-58
2022/07/22 02:38:52;;;;;;;7.90;7.20;;;;;;;20.59;60.50;97200.50;10204418;29;20063;-56
2022/07/22 02:44:13;;;;;;;7.88;7.07;;;;;;;20.58;60.48;97199.72;10204832;29;20051;-58
2022/07/22 02:49:32;;;;;;;7.63;6.93;;;;;;;20.57;60.48;97195.41;10204221;29;20060;-58
2022/07/22 02:54:52;;;;;;;7.45;6.75;;;;;;;20.57;60.25;97203.53;10218498;29;20059;-58
2022/07/22 03:00:13;;;;;;;9.63;7.20;;;;;;;20.57;60.33;97200.03;10218728;29;20055;-58
2022/07/22 03:05:33;;;;;;;7.30;6.57;;;;;;;20.56;60.31;97191.09;10203531;29;20055;-58
2022/07/22 03:11:21;;;;;;;7.65;7.05;;;;;;;20.56;60.21;97182.97;10211010;29;20060;-58
2022/07/22 03:16:41;;;;;;;7.50;6.82;;;;;;;20.54;60.10;97199.56;10203128;29;20060;-58
2022/07/22 03:22:01;;;;;;;8.45;7.50;;;;;;;20.54;60.09;97198.75;10206154;29;20051;-57
2022/07/22 03:27:21;;;;;;;7.88;7.07;;;;;;;20.54;60.15;97206.88;10203293;29;20059;-58
2022/07/22 03:32:44;;;;;;;7.93;7.28;;;;;;;20.53;60.17;97199.88;10215245;29;20519;-58
2022/07/22 03:38:04;;;;;;;7.75;7.03;;;;;;;20.52;60.05;97195.56;10202504;29;20059;-58
2022/07/22 03:43:24;;;;;;;8.32;7.53;;;;;;;20.52;60.00;97198.28;10203993;29;20052;-58
2022/07/22 03:48:44;;;;;;;8.13;7.32;;;;;;;20.51;59.97;97202.91;10214964;28;20059;-58
2022/07/22 03:54:05;;;;;;;7.80;7.10;;;;;;;20.52;60.03;97201.78;10228038;28;20052;-58
2022/07/22 03:59:25;;;;;;;8.10;7.40;;;;;;;20.51;60.06;97196.69;10201906;29;20059;-58
2022/07/22 04:04:44;;;;;;;8.73;7.82;;;;;;;20.51;60.02;97189.38;10201530;29;20063;-58
2022/07/22 04:10:05;;;;;;;8.50;7.68;;;;;;;20.52;60.08;97196.38;10200909;29;20527;-58
2022/07/22 04:15:26;;;;;;;10.23;7.93;;;;;;;20.52;59.88;97196.38;10200291;29;20062;-58
2022/07/22 04:20:46;;;;;;;11.85;8.02;;;;;;;20.53;60.20;97197.16;10200903;29;20063;-57
2022/07/22 04:26:15;;;;;;;9.63;8.75;;;;;;;20.34;61.66;97192.88;10226422;29;20063;-59
2022/07/22 04:31:35;;;;;;;9.95;9.05;;;;;;;20.14;62.95;97190.81;10200568;29;20059;-59
2022/07/22 04:37:03;;;;;;;10.07;9.20;;;;;;;20.04;63.74;97185.75;10215242;28;20056;-59
2022/07/22 04:42:27;;;;;;;10.32;9.35;;;;;;;20.07;63.98;97182.38;10200653;29;20052;-56
2022/07/22 04:47:47;;;;;;;10.05;9.15;;;;;;;20.06;64.59;97181.59;10200145;29;20475;-59
2022/07/22 04:53:06;;;;;;;10.20;9.20;;;;;;;20.08;64.99;97192.09;10199464;29;20056;-59
2022/07/22 04:58:27;;;;;;;12.30;10.40;;;;;;;20.08;65.50;97192.88;10199627;29;20075;-58
2022/07/22 05:03:48;;;;;;;11.02;9.93;;;;;;;20.12;66.02;97184.94;10199432;29;20059;-58
2022/07/22 05:09:08;;;;;;;11.07;9.93;;;;;;;20.18;66.00;97191.00;10199300;29;20051;-60
2022/07/22 05:14:28;;;;;;;10.98;9.88;;;;;;;20.23;66.13;97194.34;10198958;29;20048;-60
2022/07/22 05:19:48;;;;;;;10.70;9.60;;;;;;;20.25;65.77;97192.09;10187969;29;20579;-59
2022/07/22 05:25:08;;;;;;;9.90;8.90;;;;;;;20.31;65.73;97190.03;10223116;29;20519;-60
2022/07/22 05:30:28;;;;;;;9.85;8.68;;;;;;;20.34;65.89;97194.78;10198646;29;20067;-58
2022/07/22 05:35:48;;;;;;;9.25;8.45;;;;;;;20.35;65.88;97191.78;10189931;29;20056;-61
2022/07/22 05:41:08;;;;;;;10.23;9.23;;;;;;;20.39;65.79;97185.72;10198600;29;20052;-61
2022/07/22 05:46:28;;;;;;;9.98;9.07;;;;;;;20.40;65.38;97190.81;10198286;29;20063;-60
2022/07/22 05:51:47;;;;;;;10.23;9.00;;;;;;;20.41;65.42;97195.13;10197441;29;20060;-61
2022/07/22 05:57:10;;;;;;;9.50;8.45;;;;;;;20.42;65.06;97191.28;10211660;29;20059;-60
2022/07/22 06:02:30;;;;;;;9.70;8.73;;;;;;;20.43;64.86;97189.38;10206701;29;20115;-61
2022/07/22 06:07:51;;;;;;;9.63;8.32;;;;;;;20.43;64.85;97186.69;10197195;29;20114;-61
2022/07/22 06:13:26;;;;;;;10.10;9.20;;;;;;;20.44;64.43;97190.97;10210072;29;20055;-60
2022/07/22 06:18:46;;;;;;;9.85;8.95;;;;;;;20.45;64.24;97187.16;10224682;29;20091;-60
2022/07/22 06:24:06;;;;;;;11.15;9.57;;;;;;;20.47;64.28;97190.34;10228067;29;20051;-60
2022/07/22 06:29:25;;;;;;;9.80;8.77;;;;;;;20.48;64.11;97186.50;10216031;29;20059;-60
2022/07/22 06:34:45;;;;;;;9.63;8.82;;;;;;;20.49;64.16;97185.41;10196463;29;20408;-59
2022/07/22 06:40:06;;;;;;;9.70;8.77;;;;;;;20.49;64.06;97183.47;10197083;29;20056;-56
2022/07/22 06:45:55;;;;;;;10.15;9.25;;;;;;;20.51;63.84;97194.00;10203051;29;20060;-59
2022/07/22 06:51:33;;;;;;;9.87;8.87;;;;;;;20.50;63.88;97197.78;10209536;29;20059;-58
2022/07/22 06:56:54;;;;;;;9.07;8.18;;;;;;;20.51;63.69;97202.09;10210737;29;20090;-58
2022/07/22 07:02:19;;;;;;;9.57;8.63;;;;;;;20.51;63.62;97204.81;10186138;29;20099;-59
2022/07/22 07:07:40;;;;;;;9.40;8.43;;;;;;;20.52;63.57;97195.56;10200344;29;20055;-58
2022/07/22 07:13:01;;;;;;;9.32;8.35;;;;;;;20.51;63.46;97202.91;10203588;29;20393;-58
2022/07/22 07:18:34;;;;;;;9.43;8.55;;;;;;;20.53;63.42;97202.59;10205947;29;20059;-57
2022/07/22 07:23:53;;;;;;;8.55;7.65;;;;;;;20.52;63.19;97198.28;10208120;29;20054;-58
2022/07/22 07:29:13;;;;;;;9.05;8.25;;;;;;;20.52;63.06;97200.97;10213739;29;20404;-58
2022/07/22 07:34:34;;;;;;;8.40;7.63;;;;;;;20.52;62.86;97198.28;10216358;29;20058;-58
2022/07/22 07:39:55;;;;;;;8.77;7.97;;;;;;;20.52;62.94;97201.78;10217061;29;20123;-58
2022/07/22 07:45:14;;;;;;;9.05;7.80;;;;;;;20.53;62.77;97202.59;10229522;29;20044;-58
2022/07/22 07:50:34;;;;;;;8.75;7.95;;;;;;;20.52;62.82;97207.22;10216492;28;20054;-58
2022/07/22 07:55:54;;;;;;;8.15;7.45;;;;;;;20.52;62.76;97206.38;10205063;29;20051;-57
2022/07/22 08:01:13;;;;;;;9.38;8.48;;;;;;;20.53;62.76;97205.28;10227827;29;20427;-58
2022/07/22 08:06:33;;;;;;;8.60;7.80;;;;;;;20.54;62.63;97210.38;10201618;29;20118;-58
2022/07/22 08:11:53;;;;;;;8.48;7.68;;;;;;;20.54;62.61;97204.16;10201170;29;20119;-58
2022/07/22 08:17:42;;;;;;;8.55;7.75;;;;;;;20.54;62.79;97193.34;10209710;29;20063;-58
2022/07/22 08:23:02;;;;;;;8.32;7.53;;;;;;;20.53;62.76;97197.94;10226867;29;20067;-58
2022/07/22 08:28:24;;;;;;;8.18;7.47;;;;;;;20.54;62.67;97187.91;10206606;29;20052;-58
2022/07/22 08:33:44;;;;;;;8.25;7.53;;;;;;;20.53;62.62;97197.94;10188892;29;20072;-58
2022/07/22 08:39:04;;;;;;;7.75;7.07;;;;;;;20.54;62.60;97196.03;10227246;28;20060;-57
2022/07/22 08:44:29;;;;;;;7.70;7.00;;;;;;;20.55;62.66;97195.72;10215008;29;20059;-58
2022/07/22 08:49:50;;;;;;;8.02;7.35;;;;;;;20.54;62.44;97194.16;10199736;29;20150;-58
2022/07/22 08:55:31;;;;;;;7.85;7.20;;;;;;;20.56;62.60;97185.69;10199617;29;20060;-58
2022/07/22 09:01:08;;;;;;;7.95;7.20;;;;;;;20.57;62.68;97187.28;10213470;29;20055;-59
2022/07/22 09:06:33;;;;;;;7.53;6.90;;;;;;;20.58;62.73;97183.47;10212810;29;20086;-57
2022/07/22 09:12:04;;;;;;;7.90;7.20;;;;;;;20.59;62.70;97173.44;10186648;29;20056;-58
2022/07/22 09:17:42;;;;;;;18.30;9.13;;;;;;;20.59;62.65;97179.66;10213118;29;20067;-56
2022/07/22 09:23:21;;;;;;;8.63;7.72;;;;;;;20.59;62.70;97179.66;10198683;29;20059;-56
2022/07/22 09:28:55;;;;;;;9.02;7.53;;;;;;;20.59;62.79;97171.56;10203044;29;20056;-57
2022/07/22 09:34:31;;;;;;;11.90;7.80;;;;;;;20.61;63.01;97166.59;10212678;29;20047;-57
2022/07/22 09:40:11;;;;;;;21.50;13.38;;;;;;;20.63;63.23;97164.38;10188957;29;20066;-56
2022/07/22 09:45:32;;;;;;;23.67;15.35;;;;;;;20.64;63.46;97157.84;10212868;29;20059;-56
2022/07/22 09:50:55;;;;;;;25.17;15.38;;;;;;;20.64;63.76;97157.84;10198032;29;20080;-57
2022/07/22 09:56:25;;;;;;;19.65;14.15;;;;;;;20.68;64.20;97147.97;10224929;29;20063;-57
2022/07/22 10:01:45;;;;;;;16.60;13.82;;;;;;;20.68;64.19;97149.84;10197677;29;20055;-55
2022/07/22 10:07:05;;;;;;;18.15;13.18;;;;;;;20.70;64.54;97142.25;10210336;29;20051;-57
2022/07/22 10:12:31;;;;;;;15.30;12.70;;;;;;;20.70;64.85;97148.44;10210230;29;20051;-56
2022/07/22 10:17:56;;;;;;;17.15;12.77;;;;;;;20.70;64.97;97143.03;10209732;29;20086;-56
2022/07/22 10:23:16;;;;;;;16.52;12.88;;;;;;;20.71;65.09;97141.88;10197416;29;20055;-52
2022/07/22 10:28:37;;;;;;;15.15;13.15;;;;;;;20.71;65.17;97141.88;10206830;29;20055;-57
2022/07/22 10:33:56;;;;;;;17.05;12.13;;;;;;;20.72;65.09;97134.59;10211601;29;20051;-57
2022/07/22 10:39:16;;;;;;;10.73;9.35;;;;;;;20.70;64.72;97126.78;10211162;29;20051;-56
2022/07/22 10:44:46;;;;;;;11.07;8.65;;;;;;;20.69;63.96;97125.19;10208404;29;20051;-57
2022/07/22 10:50:37;;;;;;;9.30;8.35;;;;;;;20.70;63.30;97120.56;10219148;29;20060;-57
2022/07/22 10:56:11;;;;;;;8.73;7.63;;;;;;;20.69;63.22;97117.06;10208204;29;20148;-57
2022/07/22 11:01:32;;;;;;;9.25;8.10;;;;;;;20.68;63.13;97118.19;10218560;29;20115;-56
2022/07/22 11:06:53;;;;;;;10.38;7.75;;;;;;;20.68;62.90;97112.78;10230886;28;20389;-57
2022/07/22 11:12:13;;;;;;;8.98;8.10;;;;;;;20.68;62.86;97107.38;10219292;29;20102;-57
2022/07/22 11:17:34;;;;;;;9.98;8.27;;;;;;;20.69;62.76;97098.09;10217374;29;20071;-57
2022/07/22 11:22:56;;;;;;;11.68;8.23;;;;;;;20.70;62.82;97098.91;10207020;29;20064;-57
2022/07/22 11:28:15;;;;;;;10.00;8.05;;;;;;;20.69;62.83;97087.28;10217341;29;20064;-57
2022/07/22 11:33:35;;;;;;;12.65;8.18;;;;;;;20.69;62.67;97086.50;10217141;29;20047;-57
2022/07/22 11:38:54;;;;;;;8.85;7.95;;;;;;;20.70;62.74;97088.88;10216553;29;20060;-57
2022/07/22 11:44:18;;;;;;;11.48;8.60;;;;;;;20.71;62.67;97087.75;10217066;29;20118;-57
2022/07/22 11:49:38;;;;;;;11.18;8.18;;;;;;;20.71;62.69;97084.25;10207431;29;20060;-57
2022/07/22 11:54:57;;;;;;;9.93;8.02;;;;;;;20.71;62.83;97087.75;10215495;29;20055;-56
2022/07/22 12:00:17;;;;;;;9.95;7.65;;;;;;;20.72;62.66;97080.44;10229215;28;20048;-57
2022/07/22 12:05:37;;;;;;;11.18;7.32;;;;;;;20.73;62.62;97074.69;10205406;29;20051;-56
2022/07/22 12:10:57;;;;;;;10.85;7.82;;;;;;;20.72;62.69;97064.97;10222525;28;20048;-57
2022/07/22 12:16:20;;;;;;;8.90;7.03;;;;;;;20.73;62.67;97065.78;10201209;29;20064;-56
2022/07/22 12:21:51;;;;;;;9.05;7.40;;;;;;;20.74;62.82;97062.75;10215373;29;20052;-57
2022/07/22 12:27:16;;;;;;;10.25;7.68;;;;;;;20.75;62.87;97058.13;10240120;28;20058;-57
2022/07/22 12:32:35;;;;;;;8.48;7.60;;;;;;;20.74;62.91;97056.53;10214446;29;20055;-57
2022/07/22 12:37:54;;;;;;;9.88;7.22;;;;;;;20.74;62.90;97060.03;10214810;29;20067;-57
2022/07/22 12:43:14;;;;;;;7.25;6.55;;;;;;;20.76;62.87;97059.72;10227375;28;20491;-57
2022/07/22 12:48:33;;;;;;;7.68;6.97;;;;;;;20.74;62.77;97049.22;10213989;29;20059;-57
2022/07/22 12:53:53;;;;;;;10.18;7.30;;;;;;;20.75;62.71;97044.56;10227039;28;20052;-57
2022/07/22 12:59:12;;;;;;;8.15;7.35;;;;;;;20.77;62.79;97044.25;10214228;29;20106;-56
2022/07/22 13:04:31;;;;;;;7.38;6.65;;;;;;;20.75;62.81;97028.34;10213559;29;20114;-56
2022/07/22 13:09:51;;;;;;;8.15;7.10;;;;;;;20.77;62.63;97033.44;10222994;28;20060;-57
2022/07/22 13:15:11;;;;;;;7.70;6.88;;;;;;;20.78;62.83;97024.16;10213058;29;20055;-57
2022/07/22 13:20:30;;;;;;;7.22;6.53;;;;;;;20.78;62.85;97024.97;10213243;29;20091;-58
2022/07/22 13:25:50;;;;;;;7.55;6.78;;;;;;;20.78;62.68;97016.88;10224229;29;20492;-57
2022/07/22 13:31:09;;;;;;;7.40;6.60;;;;;;;20.82;62.78;97014.31;10212015;29;20055;-59
2022/07/22 13:36:32;;;;;;;6.57;5.88;;;;;;;20.81;62.75;97007.28;10211223;29;20051;-59
2022/07/22 13:41:51;;;;;;;6.65;6.10;;;;;;;20.82;62.81;97008.88;10225367;28;20047;-60
2022/07/22 13:47:11;;;;;;;7.50;6.25;;;;;;;20.82;62.84;97004.25;10212637;29;20397;-56
2022/07/22 13:52:30;;;;;;;6.65;5.95;;;;;;;20.84;62.94;97006.63;10212435;29;20064;-57
2022/07/22 13:57:50;;;;;;;6.93;6.25;;;;;;;20.84;63.01;97002.00;10225203;28;20051;-56
2022/07/22 14:03:10;;;;;;;6.65;6.05;;;;;;;20.85;62.97;97002.78;10199842;29;20107;-57
2022/07/22 14:08:29;;;;;;;7.35;6.13;;;;;;;20.85;62.99;97000.88;10212230;29;20067;-56
2022/07/22 14:13:49;;;;;;;6.50;5.90;;;;;;;20.85;62.79;96995.47;10202618;29;20070;-57
2022/07/22 14:19:13;;;;;;;6.10;5.50;;;;;;;20.87;62.89;96997.84;10218902;29;20063;-58
2022/07/22 14:24:32;;;;;;;6.20;5.65;;;;;;;20.87;62.77;96985.09;10230059;29;20059;-57
2022/07/22 14:29:52;;;;;;;6.22;5.70;;;;;;;20.90;62.85;96986.38;10220537;28;20058;-57
2022/07/22 14:35:11;;;;;;;6.40;5.80;;;;;;;20.90;62.74;96989.09;10231989;28;20060;-57
2022/07/22 14:40:30;;;;;;;6.90;6.00;;;;;;;20.91;62.73;96977.13;10219019;29;20051;-57
2022/07/22 14:45:49;;;;;;;6.47;5.93;;;;;;;20.91;62.57;96983.34;10219301;29;20095;-57
2022/07/22 14:51:09;;;;;;;6.40;5.80;;;;;;;20.92;62.57;96976.78;10219122;29;20063;-57
2022/07/22 14:56:29;;;;;;;6.07;5.47;;;;;;;20.95;62.43;96980.75;10218191;29;20507;-54
2022/07/22 15:01:48;;;;;;;6.32;5.82;;;;;;;20.96;62.64;96970.72;10218342;29;20063;-56
2022/07/22 15:07:07;;;;;;;6.38;5.68;;;;;;;20.97;62.57;96975.00;10218347;29;20060;-56
2022/07/22 15:12:27;;;;;;;6.13;5.63;;;;;;;20.97;62.66;96964.19;10218168;29;20087;-56
2022/07/22 15:17:46;;;;;;;7.13;5.45;;;;;;;21.00;62.51;96958.91;10217617;29;20066;-56
2022/07/22 15:23:05;;;;;;;5.45;4.95;;;;;;;21.01;62.58;96957.78;10217736;29;20056;-55
2022/07/22 15:28:28;;;;;;;5.85;5.03;;;;;;;21.02;62.59;96958.56;10207097;29;20059;-56
2022/07/22 15:33:49;;;;;;;5.57;5.10;;;;;;;21.02;62.60;96958.56;10229775;29;20051;-56
2022/07/22 15:39:09;;;;;;;5.80;5.22;;;;;;;21.05;62.78;96947.88;10216506;29;20070;-56
2022/07/22 15:44:29;;;;;;;5.40;4.90;;;;;;;21.06;62.80;96943.25;10216823;29;20071;-56
2022/07/22 15:49:48;;;;;;;5.10;4.70;;;;;;;21.08;62.71;96935.59;10216721;29;20119;-56
2022/07/22 15:55:08;;;;;;;5.80;5.25;;;;;;;21.08;62.75;96930.94;10218077;29;20051;-56
2022/07/22 16:00:30;;;;;;;5.50;4.88;;;;;;;21.08;62.77;96928.25;10216276;29;20068;-55
2022/07/22 16:05:50;;;;;;;5.57;5.07;;;;;;;21.10;62.93;96934.13;10229045;28;20103;-56
2022/07/22 16:11:10;;;;;;;5.40;4.90;;;;;;;21.10;63.02;96923.28;10216055;29;20063;-56
2022/07/22 16:16:30;;;;;;;5.47;5.00;;;;;;;21.12;63.07;96918.31;10213320;29;20067;-56
2022/07/22 16:21:49;;;;;;;5.32;4.85;;;;;;;21.13;62.99;96911.78;10215741;29;20063;-56
2022/07/22 16:27:09;;;;;;;4.93;4.53;;;;;;;21.14;62.96;96916.06;10227047;29;20087;-56
2022/07/22 16:32:28;;;;;;;61.65;7.38;;;;;;;21.17;62.92;96911.13;10214541;29;20063;-55
2022/07/22 16:37:48;;;;;;;5.47;4.93;;;;;;;21.18;63.08;96910.00;10214667;29;20071;-55
2022/07/22 16:43:07;;;;;;;5.00;4.50;;;;;;;21.22;63.17;96900.88;10214701;29;20052;-54
2022/07/22 16:48:27;;;;;;;5.63;4.55;;;;;;;21.23;63.02;96899.75;10214811;29;20063;-56
2022/07/22 16:53:48;;;;;;;5.65;4.85;;;;;;;21.24;63.13;96904.03;10215843;29;20072;-57
2022/07/22 16:59:07;;;;;;;5.03;4.63;;;;;;;21.23;63.08;96891.63;10219804;28;20373;-57
2022/07/22 17:04:26;;;;;;;4.90;4.50;;;;;;;21.24;63.28;96895.13;10213899;29;20063;-57
2022/07/22 17:09:46;;;;;;;5.15;4.47;;;;;;;21.24;63.22;96889.72;10213868;29;20060;-56
2022/07/22 17:15:06;;;;;;;5.32;4.82;;;;;;;21.25;63.07;96885.88;10212205;29;20056;-56
2022/07/22 17:20:25;;;;;;;4.90;4.50;;;;;;;21.25;63.09;96880.47;10213533;29;20060;-56
2022/07/22 17:25:44;;;;;;;4.80;4.40;;;;;;;21.24;63.13;96885.06;10232803;28;20059;-56
2022/07/22 17:31:06;;;;;;;4.93;4.53;;;;;;;21.24;63.42;96878.88;10225643;28;20519;-56
2022/07/22 17:36:26;;;;;;;4.93;4.53;;;;;;;21.23;63.60;96879.97;10213066;29;20056;-56
2022/07/22 17:41:45;;;;;;;8.15;4.55;;;;;;;21.23;63.84;96879.97;10213338;29;20063;-56
2022/07/22 17:47:05;;;;;;;4.78;4.38;;;;;;;21.23;63.84;96879.97;10212211;29;20055;-56
2022/07/22 17:52:25;;;;;;;4.32;4.03;;;;;;;21.22;63.95;96876.50;10210494;29;20048;-56
2022/07/22 17:57:44;;;;;;;4.60;4.20;;;;;;;21.22;64.04;96871.06;10211619;29;20499;-54
2022/07/22 18:03:03;;;;;;;4.63;4.22;;;;;;;21.22;63.84;96873.78;10224992;28;20048;-56
2022/07/22 18:08:23;;;;;;;5.15;4.13;;;;;;;21.22;63.92;96868.34;10212363;29;20063;-56
2022/07/22 18:13:42;;;;;;;5.13;4.18;;;;;;;21.24;63.91;96873.44;10224333;29;20063;-56
2022/07/22 18:19:02;;;;;;;5.85;4.20;;;;;;;21.22;63.65;96865.66;10211349;29;20419;-56
2022/07/22 18:24:21;;;;;;;4.72;4.07;;;;;;;21.23;63.84;96858.31;10219938;29;20051;-56
2022/07/22 18:29:40;;;;;;;4.68;4.28;;;;;;;21.22;63.50;96854.03;10211605;29;20393;-56
2022/07/22 18:34:59;;;;;;;5.65;4.35;;;;;;;21.21;63.60;96868.69;10211774;29;20052;-56
2022/07/22 18:40:19;;;;;;;4.72;4.32;;;;;;;21.21;63.41;96864.09;10223982;29;20048;-55
2022/07/22 18:45:38;;;;;;;4.45;4.05;;;;;;;21.21;63.25;96855.97;10198844;29;20468;-56
2022/07/22 18:50:59;;;;;;;4.68;4.20;;;;;;;21.21;63.05;96857.84;10210720;29;20063;-56
2022/07/22 18:56:19;;;;;;;4.78;4.30;;;;;;;21.19;62.69;96860.09;10211337;29;20126;-56
2022/07/22 19:01:38;;;;;;;5.10;4.20;;;;;;;21.19;62.22;96860.91;10210661;29;20055;-54
2022/07/22 19:06:57;;;;;;;4.80;4.28;;;;;;;21.19;61.74;96871.75;10217280;29;20078;-56
2022/07/22 19:12:19;;;;;;;5.75;4.72;;;;;;;21.20;61.39;96875.25;10207298;29;20111;-56
2022/07/22 19:17:38;;;;;;;5.15;4.65;;;;;;;21.17;60.83;96879.41;10217472;29;20067;-55
2022/07/22 19:22:58;;;;;;;6.47;4.80;;;;;;;21.18;60.41;96881.00;10230093;28;20068;-55
2022/07/22 19:28:18;;;;;;;4.93;4.53;;;;;;;21.16;60.13;96877.81;10206299;29;20216;-54
2022/07/22 19:33:38;;;;;;;5.07;4.60;;;;;;;21.16;59.62;96879.75;10217410;29;20051;-56
2022/07/22 19:38:57;;;;;;;6.00;4.25;;;;;;;21.15;59.30;96884.38;10215731;29;20062;-56
2022/07/22 19:44:17;;;;;;;6.00;4.88;;;;;;;21.14;58.89;96894.41;10214746;29;20085;-56
2022/07/22 19:49:36;;;;;;;5.05;4.65;;;;;;;21.13;58.46;96895.53;10216468;29;20059;-56
2022/07/22 19:54:56;;;;;;;5.10;4.57;;;;;;;21.13;57.98;96895.53;10216672;29;20084;-56
2022/07/22 20:00:16;;;;;;;4.60;4.20;;;;;;;21.12;57.90;96895.88;10216303;29;20087;-56
2022/07/22 20:05:35;;;;;;;5.28;4.78;;;;;;;21.12;57.55;96910.19;10216588;29;20060;-56
2022/07/22 20:10:54;;;;;;;5.35;4.85;;;;;;;21.11;57.87;96913.22;10215688;29;20059;-56
2022/07/22 20:16:14;;;;;;;4.82;4.43;;;;;;;21.12;58.16;96921.03;10212027;29;20055;-56
2022/07/22 20:21:33;;;;;;;6.07;4.43;;;;;;;21.11;58.44;96924.88;10215961;29;20059;-56
2022/07/22 20:26:52;;;;;;;4.88;4.38;;;;;;;21.12;58.70;96923.75;10227284;29;20068;-56
2022/07/22 20:32:12;;;;;;;4.93;4.50;;;;;;;21.12;59.07;96918.31;10214553;29;20503;-56
2022/07/22 20:37:31;;;;;;;4.93;4.43;;;;;;;21.13;59.18;96911.00;10227594;28;20055;-56
2022/07/22 20:42:50;;;;;;;5.28;4.22;;;;;;;21.13;59.49;96911.00;10213668;29;20055;-56
2022/07/22 20:48:10;;;;;;;4.80;4.40;;;;;;;21.12;59.52;96898.56;10213838;29;20060;-56
2022/07/22 20:53:29;;;;;;;4.95;4.47;;;;;;;21.13;59.72;96916.44;10214598;29;20064;-56
2022/07/22 20:58:49;;;;;;;5.00;4.50;;;;;;;21.13;59.75;96911.00;10213726;29;20069;-56
2022/07/22 21:04:08;;;;;;;4.97;4.57;;;;;;;21.13;59.82;96919.13;10214144;29;20047;-56
2022/07/22 21:09:27;;;;;;;5.50;5.00;;;;;;;21.13;59.94;96922.63;10226457;28;20063;-56
2022/07/22 21:14:46;;;;;;;5.07;4.68;;;;;;;21.13;59.96;96921.84;10213014;29;20051;-57
2022/07/22 21:20:06;;;;;;;4.97;4.57;;;;;;;21.12;60.03;96923.75;10213008;29;20059;-56
2022/07/22 21:25:26;;;;;;;4.95;4.55;;;;;;;21.13;60.11;96919.94;10225011;28;20055;-56
2022/07/22 21:30:46;;;;;;;5.40;5.00;;;;;;;21.13;60.03;96913.72;10212563;29;20060;-56
2022/07/22 21:36:06;;;;;;;5.50;4.97;;;;;;;21.13;59.99;96919.13;10212802;29;20088;-54
2022/07/22 21:41:26;;;;;;;5.10;4.68;;;;;;;21.13;60.15;96916.44;10215663;28;20048;-55
2022/07/22 21:46:45;;;;;;;5.00;4.50;;;;;;;21.13;60.17;96919.94;10216357;29;20500;-56
2022/07/22 21:52:04;;;;;;;5.40;4.90;;;;;;;21.13;60.06;96919.13;10212255;29;20079;-56
2022/07/22 21:57:24;;;;;;;5.30;4.80;;;;;;;21.12;60.25;96915.63;10207612;29;20059;-56
2022/07/22 22:02:43;;;;;;;5.25;4.75;;;;;;;21.13;60.23;96913.72;10212299;29;20059;-56
2022/07/22 22:08:03;;;;;;;4.78;4.38;;;;;;;21.13;60.29;96916.44;10212198;29;20060;-56
2022/07/22 22:13:22;;;;;;;5.68;5.18;;;;;;;21.11;60.25;96918.66;10224470;29;20055;-56
2022/07/22 22:18:41;;;;;;;4.93;4.53;;;;;;;21.12;60.24;96921.03;10212534;29;20067;-56
2022/07/22 22:24:07;;;;;;;5.28;4.78;;;;;;;21.12;60.34;96920.25;10217693;29;20051;-56
2022/07/22 22:29:26;;;;;;;5.07;4.68;;;;;;;21.12;60.34;96915.63;10213995;29;20095;-56
2022/07/22 22:34:45;;;;;;;5.32;4.93;;;;;;;21.13;60.31;96911.00;10212157;29;20047;-56
2022/07/22 22:40:05;;;;;;;5.35;4.85;;;;;;;21.12;60.31;96902.06;10218047;29;20063;-56
2022/07/22 22:45:25;;;;;;;5.25;4.85;;;;;;;21.11;60.36;96907.81;10219451;29;20461;-54
2022/07/22 22:50:44;;;;;;;5.00;4.60;;;;;;;21.11;60.31;96907.81;10219158;29;20052;-56
2022/07/22 22:56:05;;;;;;;5.40;5.00;;;;;;;21.12;60.22;96912.13;10231438;28;20058;-54
2022/07/22 23:01:24;;;;;;;5.60;5.10;;;;;;;21.11;60.26;96916.75;10218615;29;20064;-55
2022/07/22 23:06:45;;;;;;;5.45;4.95;;;;;;;21.11;60.17;96929.47;10218585;29;20067;-56
2022/07/22 23:12:08;;;;;;;5.20;4.80;;;;;;;21.12;60.25;96931.09;10217571;29;20488;-55
2022/07/22 23:17:27;;;;;;;5.03;4.63;;;;;;;21.12;60.34;96934.56;10217230;29;20063;-55
2022/07/22 23:22:47;;;;;;;6.15;5.55;;;;;;;21.13;60.36;96935.41;10230512;29;20500;-56
2022/07/22 23:28:06;;;;;;;5.43;4.80;;;;;;;21.11;60.31;96933.00;10228732;29;20087;-57
2022/07/22 23:33:25;;;;;;;5.70;5.20;;;;;;;21.12;60.24;96921.03;10230122;28;20058;-55
2022/07/22 23:38:45;;;;;;;5.35;4.85;;;;;;;21.12;60.34;96921.03;10217398;29;20060;-56
2022/07/22 23:44:04;;;;;;;5.28;4.78;;;;;;;21.12;60.29;96936.50;10215261;29;20095;-55
2022/07/22 23:49:23;;;;;;;5.40;4.95;;;;;;;21.11;60.19;96927.59;10228409;29;20412;-56
2022/07/22 23:54:42;;;;;;;5.70;5.20;;;;;;;21.11;60.43;96932.19;10229365;28;20048;-56
